createdAt,value
2018-03-27T00:01:54.654Z,2.68
2018-03-27T00:04:25.254Z,2.58
2018-03-27T00:06:52.809Z,2.55
2018-03-27T00:09:20.400Z,2.55
2018-03-27T00:11:47.993Z,2.56
2018-03-27T00:14:15.609Z,2.59
2018-03-27T00:16:43.184Z,2.58
2018-03-27T00:19:10.763Z,2.50
2018-03-27T00:21:38.324Z,2.51
2018-03-27T00:24:05.904Z,2.48
2018-03-27T00:26:33.538Z,2.48
2018-03-27T00:29:13.547Z,2.49
2018-03-27T00:31:52.938Z,2.53
2018-03-27T00:34:32.410Z,2.47
2018-03-27T00:37:11.729Z,2.47
2018-03-27T00:39:51.093Z,2.64
2018-03-27T00:42:27.902Z,2.64
2018-03-27T00:44:55.449Z,2.65
2018-03-27T00:47:23.232Z,2.63
2018-03-27T00:49:50.813Z,2.65
2018-03-27T00:52:18.597Z,2.66
2018-03-27T00:54:46.171Z,2.73
2018-03-27T00:57:14.249Z,2.66
2018-03-27T00:59:41.841Z,2.58
2018-03-27T01:02:09.379Z,2.54
2018-03-27T01:04:37.656Z,2.49
2018-03-27T01:07:05.264Z,2.48
2018-03-27T01:09:33.000Z,2.45
2018-03-27T01:12:00.547Z,2.48
2018-03-27T01:14:28.129Z,2.41
2018-03-27T01:16:55.748Z,2.38
2018-03-27T01:19:23.700Z,2.37
2018-03-27T01:21:51.347Z,2.37
2018-03-27T01:24:18.932Z,2.26
2018-03-27T01:26:46.521Z,2.20
2018-03-27T01:29:14.714Z,2.22
2018-03-27T01:31:42.546Z,2.24
2018-03-27T01:34:10.104Z,2.22
2018-03-27T01:36:37.894Z,2.17
2018-03-27T01:39:06.587Z,2.12
2018-03-27T01:41:34.172Z,2.19
2018-03-27T01:44:01.746Z,2.23
2018-03-27T01:46:29.805Z,2.16
2018-03-27T01:48:57.392Z,2.10
2018-03-27T01:51:27.080Z,2.06
2018-03-27T01:53:54.641Z,2.01
2018-03-27T01:56:22.978Z,1.94
2018-03-27T01:58:50.557Z,1.88
2018-03-27T02:01:18.156Z,1.96
2018-03-27T02:03:47.322Z,1.96
2018-03-27T02:06:15.127Z,1.95
2018-03-27T02:08:45.573Z,1.89
2018-03-27T02:11:20.390Z,1.86
2018-03-27T02:13:54.508Z,1.87
2018-03-27T02:16:27.739Z,1.92
2018-03-27T02:19:02.896Z,1.92
2018-03-27T02:21:29.923Z,1.90
2018-03-27T02:27:07.732Z,1.93
2018-03-27T02:29:35.329Z,1.95
2018-03-27T02:32:02.905Z,2.00
2018-03-27T02:34:30.803Z,2.02
2018-03-27T02:36:58.393Z,2.06
2018-03-27T02:39:25.993Z,2.04
2018-03-27T02:41:53.551Z,2.06
2018-03-27T02:44:21.134Z,2.01
2018-03-27T02:46:48.698Z,2.02
2018-03-27T02:49:16.265Z,1.96
2018-03-27T02:51:43.852Z,1.92
2018-03-27T02:54:11.425Z,1.92
2018-03-27T02:56:39.005Z,1.92
2018-03-27T02:59:06.582Z,1.98
2018-03-27T03:01:34.181Z,1.99
2018-03-27T03:04:01.782Z,1.97
2018-03-27T03:06:29.375Z,1.93
2018-03-27T03:08:56.936Z,1.89
2018-03-27T03:11:24.546Z,1.86
2018-03-27T03:13:52.124Z,1.83
2018-03-27T03:16:19.682Z,1.77
2018-03-27T03:18:47.253Z,1.72
2018-03-27T03:21:14.807Z,1.78
2018-03-27T03:23:43.244Z,1.82
2018-03-27T03:26:10.854Z,1.86
2018-03-27T03:28:38.414Z,1.86
2018-03-27T03:31:05.987Z,1.83
2018-03-27T03:33:33.581Z,1.87
2018-03-27T03:36:01.153Z,1.81
2018-03-27T03:38:28.736Z,1.82
2018-03-27T03:40:56.287Z,1.86
2018-03-27T03:43:23.832Z,1.86
2018-03-27T03:45:51.413Z,1.84
2018-03-27T03:48:18.983Z,1.80
2018-03-27T03:50:46.572Z,1.77
2018-03-27T03:53:14.133Z,1.90
2018-03-27T03:55:41.713Z,1.90
2018-03-27T03:58:09.297Z,1.85
2018-03-27T04:00:36.851Z,1.94
2018-03-27T04:03:04.431Z,1.91
2018-03-27T04:05:31.990Z,1.86
2018-03-27T04:07:59.578Z,1.87
2018-03-27T04:10:27.156Z,1.86
2018-03-27T04:15:26.409Z,1.87
2018-03-27T04:17:53.960Z,1.81
2018-03-27T04:20:21.538Z,1.79
2018-03-27T04:22:49.098Z,1.76
2018-03-27T04:25:16.649Z,1.71
2018-03-27T04:27:44.213Z,1.67
2018-03-27T04:30:12.580Z,1.64
2018-03-27T04:32:40.195Z,1.62
2018-03-27T04:35:07.746Z,1.62
2018-03-27T04:37:35.299Z,1.63
2018-03-27T04:40:02.897Z,1.64
2018-03-27T04:42:30.466Z,1.66
2018-03-27T04:44:58.025Z,1.65
2018-03-27T04:47:25.604Z,1.62
2018-03-27T04:49:53.173Z,1.65
2018-03-27T04:52:20.738Z,1.71
2018-03-27T04:54:48.303Z,1.68
2018-03-27T04:57:15.869Z,1.75
2018-03-27T04:59:43.445Z,1.74
2018-03-27T05:02:11.013Z,1.71
2018-03-27T05:04:38.570Z,1.73
2018-03-27T05:07:06.159Z,1.74
2018-03-27T05:09:33.756Z,1.78
2018-03-27T05:12:01.340Z,1.79
2018-03-27T05:14:28.919Z,1.79
2018-03-27T05:16:56.490Z,1.84
2018-03-27T05:19:24.083Z,1.88
2018-03-27T05:21:51.670Z,1.95
2018-03-27T05:24:19.236Z,1.91
2018-03-27T05:26:46.816Z,1.89
2018-03-27T05:29:14.376Z,1.95
2018-03-27T05:31:41.958Z,1.97
2018-03-27T05:34:09.552Z,1.97
2018-03-27T05:36:37.150Z,2.06
2018-03-27T05:39:07.408Z,2.19
2018-03-27T05:41:34.981Z,2.27
2018-03-27T05:44:02.579Z,2.29
2018-03-27T05:46:30.217Z,2.44
2018-03-27T05:48:57.843Z,2.52
2018-03-27T05:51:25.437Z,2.59
2018-03-27T05:53:52.978Z,2.71
2018-03-27T05:56:20.538Z,2.68
2018-03-27T05:58:48.115Z,2.75
2018-03-27T06:01:15.695Z,2.75
2018-03-27T06:03:43.257Z,2.78
2018-03-27T06:06:10.893Z,2.99
2018-03-27T06:08:38.503Z,3.21
2018-03-27T06:13:39.812Z,3.16
2018-03-27T06:16:07.528Z,3.21
2018-03-27T06:18:35.114Z,3.34
2018-03-27T06:21:02.665Z,3.52
2018-03-27T06:23:30.273Z,3.80
2018-03-27T06:25:57.834Z,4.00
2018-03-27T06:28:25.374Z,3.76
2018-03-27T06:30:52.970Z,3.90
2018-03-27T06:33:20.524Z,3.94
2018-03-27T06:35:48.086Z,4.06
2018-03-27T06:38:15.666Z,3.97
2018-03-27T06:40:43.230Z,3.71
2018-03-27T06:43:10.785Z,3.54
2018-03-27T06:45:38.432Z,3.38
2018-03-27T06:48:05.993Z,3.37
2018-03-27T06:50:33.571Z,3.46
2018-03-27T06:53:01.133Z,3.53
2018-03-27T06:55:28.680Z,3.66
2018-03-27T06:57:56.272Z,3.63
2018-03-27T07:00:23.834Z,3.91
2018-03-27T07:02:51.419Z,4.25
2018-03-27T07:05:19.036Z,4.55
2018-03-27T07:07:46.657Z,4.82
2018-03-27T07:10:14.198Z,4.92
2018-03-27T07:12:41.785Z,5.04
2018-03-27T07:15:09.336Z,5.09
2018-03-27T07:17:36.901Z,5.20
2018-03-27T07:20:04.505Z,5.36
2018-03-27T07:22:32.081Z,5.26
2018-03-27T07:24:59.653Z,5.35
2018-03-27T07:27:27.208Z,5.52
2018-03-27T07:29:54.754Z,5.63
2018-03-27T07:32:22.312Z,6.08
2018-03-27T07:34:49.881Z,6.44
2018-03-27T07:37:17.453Z,6.65
2018-03-27T07:39:45.010Z,6.55
2018-03-27T07:42:12.542Z,6.76
2018-03-27T07:44:40.110Z,7.10
2018-03-27T07:47:07.705Z,6.59
2018-03-27T07:49:35.351Z,6.32
2018-03-27T07:52:02.864Z,6.30
2018-03-27T07:54:32.926Z,6.22
2018-03-27T07:57:09.411Z,6.11
2018-03-27T07:59:36.997Z,6.16
2018-03-27T08:02:04.569Z,6.36
2018-03-27T08:04:32.139Z,6.53
2018-03-27T08:06:59.633Z,6.28
2018-03-27T08:09:27.185Z,6.25
2018-03-27T08:11:58.006Z,6.22
2018-03-27T08:14:26.417Z,6.20
2018-03-27T08:16:54.021Z,6.17
2018-03-27T08:19:21.710Z,5.95
2018-03-27T08:21:49.293Z,5.83
2018-03-27T08:24:16.870Z,5.77
2018-03-27T08:26:44.496Z,5.78
2018-03-27T08:29:12.055Z,5.76
2018-03-27T08:31:39.622Z,5.59
2018-03-27T08:34:07.168Z,5.64
2018-03-27T08:36:34.734Z,5.64
2018-03-27T08:39:02.298Z,5.53
2018-03-27T08:41:29.856Z,5.61
2018-03-27T08:43:57.421Z,5.71
2018-03-27T08:46:25.317Z,5.79
2018-03-27T08:48:52.874Z,5.79
2018-03-27T08:51:21.172Z,6.08
2018-03-27T08:53:48.726Z,6.27
2018-03-27T08:58:43.164Z,6.68
2018-03-27T09:01:10.747Z,6.58
2018-03-27T09:03:38.448Z,6.71
2018-03-27T09:06:06.053Z,6.75
2018-03-27T09:08:33.636Z,6.97
2018-03-27T09:11:01.245Z,6.77
2018-03-27T09:13:28.801Z,7.18
2018-03-27T09:15:56.404Z,7.16
2018-03-27T09:18:23.979Z,7.20
2018-03-27T09:20:51.574Z,6.76
2018-03-27T09:23:19.177Z,6.82
2018-03-27T09:25:46.689Z,7.07
2018-03-27T09:28:14.352Z,7.15
2018-03-27T09:30:41.910Z,7.08
2018-03-27T09:33:09.495Z,6.88
2018-03-27T09:35:37.058Z,6.71
2018-03-27T09:38:04.620Z,6.38
2018-03-27T09:40:32.214Z,5.86
2018-03-27T09:42:59.765Z,5.54
2018-03-27T09:45:27.346Z,5.10
2018-03-27T09:47:54.942Z,4.89
2018-03-27T09:50:22.532Z,4.68
2018-03-27T09:52:50.094Z,4.81
2018-03-27T09:55:17.795Z,5.02
2018-03-27T09:57:45.389Z,5.22
2018-03-27T10:00:12.950Z,5.42
2018-03-27T10:02:40.528Z,5.47
2018-03-27T10:05:08.246Z,5.69
2018-03-27T10:07:35.879Z,5.86
2018-03-27T10:10:03.476Z,5.82
2018-03-27T10:12:31.496Z,5.94
2018-03-27T10:14:59.359Z,6.00
2018-03-27T10:17:27.299Z,6.12
2018-03-27T10:22:30.336Z,6.06
2018-03-27T10:24:58.024Z,6.25
2018-03-27T10:27:25.676Z,6.24
2018-03-27T10:29:53.225Z,6.44
2018-03-27T10:32:20.807Z,6.74
2018-03-27T10:34:48.386Z,6.79
2018-03-27T10:37:15.959Z,7.05
2018-03-27T10:39:43.574Z,7.25
2018-03-27T10:42:11.150Z,7.77
2018-03-27T10:44:38.743Z,7.75
2018-03-27T10:47:06.370Z,8.15
2018-03-27T10:49:33.941Z,7.67
2018-03-27T10:52:01.514Z,7.81
2018-03-27T10:54:29.094Z,7.70
2018-03-27T10:56:56.663Z,7.92
2018-03-27T10:59:24.239Z,8.02
2018-03-27T11:01:51.842Z,8.19
2018-03-27T11:04:19.437Z,8.49
2018-03-27T11:06:46.990Z,9.01
2018-03-27T11:09:14.562Z,9.05
2018-03-27T11:11:42.205Z,8.68
2018-03-27T11:14:10.062Z,8.93
2018-03-27T11:16:37.662Z,8.79
2018-03-27T11:19:05.255Z,8.92
2018-03-27T11:21:32.836Z,8.69
2018-03-27T11:24:00.433Z,8.78
2018-03-27T11:26:27.975Z,8.80
2018-03-27T11:28:55.538Z,8.34
2018-03-27T11:31:23.131Z,7.66
2018-03-27T11:33:50.677Z,7.55
2018-03-27T11:36:18.244Z,7.62
2018-03-27T11:38:45.816Z,7.47
2018-03-27T11:41:13.399Z,7.51
2018-03-27T11:43:41.026Z,7.30
2018-03-27T11:46:24.138Z,6.87
2018-03-27T11:48:51.742Z,6.43
2018-03-27T11:51:19.329Z,6.24
2018-03-27T11:53:46.902Z,5.94
2018-03-27T11:56:14.483Z,6.05
2018-03-27T11:58:42.064Z,6.50
2018-03-27T12:01:09.610Z,6.63
2018-03-27T12:03:37.167Z,6.66
2018-03-27T12:06:04.769Z,6.93
2018-03-27T12:08:32.317Z,7.17
2018-03-27T12:10:59.885Z,7.42
2018-03-27T12:13:27.474Z,7.63
2018-03-27T12:15:55.052Z,8.27
2018-03-27T12:18:22.612Z,8.84
2018-03-27T12:20:50.178Z,9.37
2018-03-27T12:23:17.729Z,8.76
2018-03-27T12:25:45.311Z,8.68
2018-03-27T12:28:12.855Z,8.76
2018-03-27T12:30:40.447Z,9.72
2018-03-27T12:33:08.046Z,9.93
2018-03-27T12:35:35.639Z,9.77
2018-03-27T12:38:03.223Z,8.59
2018-03-27T12:40:30.780Z,9.25
2018-03-27T12:42:58.362Z,9.52
2018-03-27T12:45:25.951Z,10.50
2018-03-27T12:47:54.706Z,10.86
2018-03-27T12:50:22.289Z,9.84
2018-03-27T12:52:49.865Z,8.55
2018-03-27T12:55:17.408Z,7.87
2018-03-27T12:57:45.288Z,7.34
2018-03-27T13:00:12.853Z,6.43
2018-03-27T13:02:40.419Z,5.78
2018-03-27T13:05:08.023Z,5.15
2018-03-27T13:07:35.647Z,4.73
2018-03-27T13:10:03.225Z,4.43
2018-03-27T13:12:30.794Z,3.96
2018-03-27T13:14:58.423Z,3.84
2018-03-27T13:17:25.988Z,3.69
2018-03-27T13:19:53.548Z,3.46
2018-03-27T13:22:21.130Z,3.36
2018-03-27T13:24:48.698Z,3.34
2018-03-27T13:27:16.327Z,3.15
2018-03-27T13:29:43.894Z,3.22
2018-03-27T13:32:11.492Z,3.50
2018-03-27T13:34:39.002Z,3.58
2018-03-27T13:37:06.558Z,3.45
2018-03-27T13:39:34.241Z,3.55
2018-03-27T13:42:01.818Z,3.83
2018-03-27T13:44:29.378Z,4.05
2018-03-27T13:46:56.972Z,4.10
2018-03-27T13:49:24.588Z,4.25
2018-03-27T13:51:52.185Z,4.35
2018-03-27T13:54:19.849Z,4.56
2018-03-27T13:56:47.462Z,4.68
2018-03-27T13:59:15.016Z,4.82
2018-03-27T14:01:42.621Z,4.92
2018-03-27T14:04:10.202Z,4.92
2018-03-27T14:06:37.796Z,4.88
2018-03-27T14:09:05.660Z,4.84
2018-03-27T14:11:33.271Z,5.06
2018-03-27T14:14:00.840Z,5.09
2018-03-27T14:16:28.522Z,5.07
2018-03-27T14:18:56.082Z,5.15
2018-03-27T14:21:23.690Z,5.02
2018-03-27T14:23:51.251Z,4.91
2018-03-27T14:29:09.039Z,4.55
2018-03-27T14:31:36.665Z,4.48
2018-03-27T14:34:04.596Z,4.45
2018-03-27T14:36:32.404Z,4.59
2018-03-27T14:39:00.020Z,4.51
2018-03-27T14:41:27.589Z,4.45
2018-03-27T14:43:55.229Z,4.51
2018-03-27T14:46:22.848Z,4.60
2018-03-27T14:48:50.480Z,4.64
2018-03-27T14:51:19.007Z,4.57
2018-03-27T14:53:46.621Z,4.36
2018-03-27T14:56:14.950Z,4.30
2018-03-27T14:58:42.765Z,4.14
2018-03-27T15:01:10.356Z,4.09
2018-03-27T15:03:37.961Z,4.07
2018-03-27T15:06:05.554Z,3.75
2018-03-27T15:08:33.093Z,3.63
2018-03-27T15:11:01.067Z,3.51
2018-03-27T15:13:44.329Z,3.47
2018-03-27T15:16:11.900Z,3.61
2018-03-27T15:18:39.469Z,3.79
2018-03-27T15:21:06.994Z,3.77
2018-03-27T15:23:34.570Z,3.67
2018-03-27T15:26:02.126Z,3.47
2018-03-27T15:28:30.717Z,3.54
2018-03-27T15:30:58.308Z,3.16
2018-03-27T15:33:26.061Z,3.02
2018-03-27T15:35:53.601Z,3.02
2018-03-27T15:38:21.182Z,2.97
2018-03-27T15:40:48.754Z,3.08
2018-03-27T15:43:16.329Z,3.12
2018-03-27T15:45:43.994Z,3.02
2018-03-27T15:48:11.566Z,3.07
2018-03-27T15:50:39.151Z,3.06
2018-03-27T15:53:06.727Z,3.10
2018-03-27T15:55:34.318Z,3.39
2018-03-27T15:58:01.909Z,3.36
2018-03-27T16:00:29.462Z,3.49
2018-03-27T16:02:57.107Z,3.57
2018-03-27T16:05:24.631Z,3.35
2018-03-27T16:07:52.212Z,3.20
2018-03-27T16:10:19.875Z,3.17
2018-03-27T16:12:47.469Z,3.13
2018-03-27T16:15:15.074Z,3.13
2018-03-27T16:17:42.645Z,3.15
2018-03-27T16:20:11.151Z,3.21
2018-03-27T16:22:38.713Z,3.36
2018-03-27T16:25:06.239Z,3.33
2018-03-27T16:27:33.815Z,3.28
2018-03-27T16:30:01.412Z,3.24
2018-03-27T16:32:29.013Z,3.19
2018-03-27T16:34:56.653Z,3.11
2018-03-27T16:37:24.251Z,3.06
2018-03-27T16:39:51.847Z,3.12
2018-03-27T16:42:19.465Z,3.18
2018-03-27T16:44:47.036Z,3.25
2018-03-27T16:47:14.617Z,3.25
2018-03-27T16:49:42.223Z,3.19
2018-03-27T16:52:09.804Z,3.22
2018-03-27T16:54:37.396Z,3.12
2018-03-27T16:57:05.000Z,3.09
2018-03-27T16:59:32.794Z,3.08
2018-03-27T17:02:00.393Z,3.15
2018-03-27T17:04:27.987Z,3.17
2018-03-27T17:06:55.584Z,3.12
2018-03-27T17:09:23.163Z,3.12
2018-03-27T17:11:50.829Z,3.04
2018-03-27T17:14:18.431Z,3.06
2018-03-27T17:16:46.004Z,3.07
2018-03-27T17:19:13.613Z,2.90
2018-03-27T17:21:41.211Z,2.70
2018-03-27T17:24:08.822Z,2.52
2018-03-27T17:26:36.460Z,2.40
2018-03-27T17:29:04.935Z,2.23
2018-03-27T17:31:32.530Z,2.09
2018-03-27T17:34:00.101Z,1.98
2018-03-27T17:36:27.731Z,1.88
2018-03-27T17:38:55.347Z,1.91
2018-03-27T17:41:22.980Z,2.04
2018-03-27T17:43:50.628Z,2.03
2018-03-27T17:46:18.199Z,1.98
2018-03-27T17:48:45.771Z,1.96
2018-03-27T17:51:13.400Z,1.91
2018-03-27T17:53:40.975Z,1.91
2018-03-27T17:56:08.542Z,1.87
2018-03-27T17:58:36.129Z,1.84
2018-03-27T18:01:03.797Z,1.83
2018-03-27T18:03:31.396Z,1.68
2018-03-27T18:05:58.941Z,1.56
2018-03-27T18:08:26.558Z,1.48
2018-03-27T18:10:54.106Z,1.36
2018-03-27T18:13:21.686Z,1.26
2018-03-27T18:15:49.274Z,1.19
2018-03-27T18:18:16.826Z,1.09
2018-03-27T18:20:44.530Z,0.99
2018-03-27T18:23:12.099Z,0.94
2018-03-27T18:25:39.682Z,0.87
2018-03-27T18:28:07.258Z,0.83
2018-03-27T18:30:34.814Z,0.83
2018-03-27T18:33:02.400Z,0.80
2018-03-27T18:35:29.951Z,0.86
2018-03-27T18:37:57.517Z,0.88
2018-03-27T18:40:31.048Z,0.88
2018-03-27T18:42:58.687Z,0.92
2018-03-27T18:45:26.242Z,0.94
2018-03-27T18:47:53.780Z,1.01
2018-03-27T18:50:21.402Z,1.06
2018-03-27T18:52:48.965Z,1.02
2018-03-27T18:55:16.765Z,0.94
2018-03-27T18:57:44.849Z,0.86
2018-03-27T19:00:12.740Z,0.81
2018-03-27T19:02:40.450Z,0.91
2018-03-27T19:05:08.198Z,0.93
2018-03-27T19:07:35.820Z,0.93
2018-03-27T19:10:03.435Z,0.94
2018-03-27T19:12:31.026Z,1.01
2018-03-27T19:14:58.845Z,1.06
2018-03-27T19:17:26.527Z,1.11
2018-03-27T19:19:54.114Z,1.10
2018-03-27T19:22:21.696Z,1.09
2018-03-27T19:24:49.331Z,1.12
2018-03-27T19:27:16.900Z,1.09
2018-03-27T19:29:44.478Z,1.10
2018-03-27T19:32:12.098Z,1.03
2018-03-27T19:34:39.674Z,0.98
2018-03-27T19:37:07.343Z,0.92
2018-03-27T19:39:34.893Z,0.93
2018-03-27T19:42:02.514Z,0.95
2018-03-27T19:44:30.092Z,0.96
2018-03-27T19:46:57.675Z,0.97
2018-03-27T19:49:25.284Z,0.94
2018-03-27T19:51:53.726Z,0.93
2018-03-27T19:54:21.630Z,0.87
2018-03-27T19:56:49.233Z,0.73
2018-03-27T19:59:16.927Z,0.57
2018-03-27T20:01:44.556Z,0.51
2018-03-27T20:04:12.540Z,0.48
2018-03-27T20:06:40.122Z,0.55
2018-03-27T20:09:07.737Z,0.55
2018-03-27T20:11:35.310Z,0.51
2018-03-27T20:14:02.931Z,0.55
2018-03-27T20:16:30.917Z,0.61
2018-03-27T20:18:58.573Z,0.56
2018-03-27T20:21:26.951Z,0.43
2018-03-27T20:23:54.594Z,0.33
2018-03-27T20:26:22.258Z,0.31
2018-03-27T20:28:49.992Z,0.31
2018-03-27T20:31:17.637Z,0.34
2018-03-27T20:33:45.290Z,0.32
2018-03-27T20:36:12.974Z,0.27
2018-03-27T20:38:40.694Z,0.11
2018-03-27T20:41:08.368Z,0.06
2018-03-27T20:43:35.994Z,0.00
2018-03-27T20:46:03.616Z,-0.06
2018-03-27T20:48:37.209Z,-0.14
2018-03-27T20:51:04.790Z,-0.16
2018-03-27T20:53:32.387Z,-0.15
2018-03-27T20:56:00.018Z,-0.07
2018-03-27T20:58:27.614Z,-0.12
2018-03-27T21:00:55.229Z,-0.13
2018-03-27T21:03:22.889Z,-0.11
2018-03-27T21:05:50.673Z,-0.15
2018-03-27T21:08:18.322Z,-0.22
2018-03-27T21:10:45.913Z,-0.41
2018-03-27T21:13:13.938Z,-0.47
2018-03-27T21:15:41.520Z,-0.43
2018-03-27T21:18:09.089Z,-0.37
2018-03-27T21:20:36.684Z,-0.33
2018-03-27T21:23:04.279Z,-0.32
2018-03-27T21:25:31.911Z,-0.32
2018-03-27T21:27:59.495Z,-0.29
2018-03-27T21:30:27.140Z,-0.35
2018-03-27T21:32:54.751Z,-0.50
2018-03-27T21:35:22.257Z,-0.49
2018-03-27T21:37:49.850Z,-0.47
2018-03-27T21:40:17.452Z,-0.50
2018-03-27T21:42:45.043Z,-0.50
2018-03-27T21:45:12.668Z,-0.53
2018-03-27T21:47:40.251Z,-0.53
2018-03-27T21:50:07.817Z,-0.60
2018-03-27T21:55:25.692Z,-0.71
2018-03-27T21:57:53.343Z,-0.71
2018-03-27T22:00:20.939Z,-0.79
2018-03-27T22:02:48.538Z,-0.82
2018-03-27T22:05:16.158Z,-0.85
2018-03-27T22:07:43.730Z,-0.95
2018-03-27T22:10:11.382Z,-0.96
2018-03-27T22:12:38.987Z,-1.00
2018-03-27T22:15:06.558Z,-1.05
2018-03-27T22:17:34.136Z,-1.04
2018-03-27T22:20:01.711Z,-0.91
2018-03-27T22:22:29.314Z,-0.91
2018-03-27T22:24:56.905Z,-0.95
2018-03-27T22:27:24.501Z,-1.00
2018-03-27T22:29:52.082Z,-1.05
2018-03-27T22:32:19.653Z,-1.09
2018-03-27T22:34:47.778Z,-1.07
2018-03-27T22:37:15.446Z,-1.09
2018-03-27T22:39:43.060Z,-1.05
2018-03-27T22:42:10.668Z,-1.08
2018-03-27T22:47:29.058Z,-1.15
2018-03-27T22:49:56.791Z,-1.28
2018-03-27T22:52:24.520Z,-1.34
2018-03-27T22:54:52.103Z,-1.28
2018-03-27T22:57:19.708Z,-1.37
2018-03-27T22:59:48.238Z,-1.41
2018-03-27T23:02:16.110Z,-1.34
2018-03-27T23:04:45.035Z,-1.17
2018-03-27T23:07:12.696Z,-1.15
2018-03-27T23:09:40.304Z,-1.07
2018-03-27T23:12:09.599Z,-1.01
2018-03-27T23:14:38.760Z,-1.02
2018-03-27T23:17:06.396Z,-0.96
2018-03-27T23:19:34.859Z,-0.96
2018-03-27T23:22:02.573Z,-0.97
2018-03-27T23:24:30.362Z,-1.04
2018-03-27T23:26:57.975Z,-1.05
2018-03-27T23:29:25.626Z,-1.11
2018-03-27T23:31:53.173Z,-1.15
2018-03-27T23:34:20.789Z,-1.26
2018-03-27T23:36:48.429Z,-1.34
2018-03-27T23:39:16.064Z,-1.33
2018-03-27T23:41:43.704Z,-1.36
2018-03-27T23:44:11.317Z,-1.45
2018-03-27T23:46:38.881Z,-1.49
2018-03-27T23:49:06.505Z,-1.52
2018-03-27T23:51:34.045Z,-1.58
2018-03-27T23:54:01.554Z,-1.58
2018-03-27T23:56:29.209Z,-1.57
2018-03-27T23:58:56.789Z,-1.54
